createdAt,value
2019-05-15T00:01:44.545Z,77.60
2019-05-15T00:04:20.965Z,78.23
2019-05-15T00:06:53.792Z,77.76
2019-05-15T00:09:28.479Z,77.71
2019-05-15T00:12:01.286Z,77.46
2019-05-15T00:14:33.317Z,76.65
2019-05-15T00:17:05.336Z,76.33
2019-05-15T00:19:38.906Z,76.62
2019-05-15T00:22:14.384Z,76.57
2019-05-15T00:24:48.658Z,76.23
2019-05-15T00:27:20.394Z,77.50
2019-05-15T00:30:02.292Z,79.08
2019-05-15T00:32:39.413Z,80.80
2019-05-15T00:35:14.586Z,82.44
2019-05-15T00:37:49.050Z,83.23
2019-05-15T00:40:28.776Z,83.69
2019-05-15T00:42:59.956Z,83.91
2019-05-15T00:52:12.306Z,84.31
2019-05-15T00:54:44.680Z,83.96
2019-05-15T01:05:10.946Z,79.98
2019-05-15T01:06:54.674Z,79.19
2019-05-15T01:07:18.807Z,81.66
2019-05-15T01:09:29.180Z,78.64
2019-05-15T01:12:01.409Z,79.38
2019-05-15T01:14:34.945Z,79.94
2019-05-15T01:17:22.315Z,80.72
2019-05-15T01:20:25.432Z,81.27
2019-05-15T01:23:03.292Z,81.50
2019-05-15T01:25:38.938Z,81.98
2019-05-15T01:28:25.922Z,83.03
2019-05-15T01:31:02.546Z,84.22
2019-05-15T01:33:39.267Z,85.96
2019-05-15T01:36:28.726Z,87.04
2019-05-15T01:39:13.242Z,88.13
2019-05-15T01:41:53.852Z,89.12
2019-05-15T01:44:35.571Z,89.70
2019-05-15T01:47:28.166Z,90.21
2019-05-15T01:50:41.506Z,90.09
2019-05-15T01:53:14.460Z,89.91
2019-05-15T01:55:54.728Z,89.77
2019-05-15T02:02:13.675Z,88.97
2019-05-15T02:08:12.424Z,87.60
2019-05-15T02:10:44.447Z,87.31
2019-05-15T02:14:08.086Z,87.21
2019-05-15T02:16:39.549Z,87.77
2019-05-15T02:19:52.435Z,89.24
2019-05-15T02:22:28.344Z,89.92
2019-05-15T02:25:00.481Z,90.20
2019-05-15T02:30:34.198Z,89.88
2019-05-15T02:33:25.990Z,89.56
2019-05-15T02:36:00.103Z,90.37
2019-05-15T02:38:32.134Z,90.67
2019-05-15T02:45:04.348Z,91.38
2019-05-15T02:51:19.112Z,92.09
2019-05-15T02:54:30.462Z,92.27
2019-05-15T02:57:03.809Z,92.68
2019-05-15T02:59:39.328Z,93.07
2019-05-15T03:02:12.838Z,93.43
2019-05-15T03:04:44.825Z,93.39
2019-05-15T03:07:19.250Z,93.53
2019-05-15T03:09:52.401Z,93.04
2019-05-15T03:12:28.831Z,93.07
2019-05-15T03:15:00.310Z,93.47
2019-05-15T03:17:32.439Z,93.49
2019-05-15T03:20:10.314Z,94.20
2019-05-15T03:22:42.277Z,95.57
2019-05-15T03:25:18.970Z,96.62
2019-05-15T03:27:50.099Z,97.21
2019-05-15T03:30:23.153Z,97.87
2019-05-15T03:33:03.860Z,98.38
2019-05-15T03:35:33.134Z,99.30
2019-05-15T03:38:05.454Z,99.64
2019-05-15T03:40:39.755Z,100.00
2019-05-15T03:43:12.511Z,100.00
2019-05-15T03:45:44.985Z,100.00
2019-05-15T03:48:19.522Z,100.00
2019-05-15T03:50:50.684Z,100.00
2019-05-15T03:53:23.020Z,100.00
2019-05-15T03:55:58.660Z,100.00
2019-05-15T03:58:30.754Z,100.00
2019-05-15T04:01:02.901Z,100.00
2019-05-15T04:03:34.849Z,100.00
2019-05-15T04:06:10.166Z,100.00
2019-05-15T04:08:40.984Z,100.00
2019-05-15T04:11:15.981Z,100.00
2019-05-15T04:13:50.221Z,100.00
2019-05-15T04:16:22.653Z,100.00
2019-05-15T04:18:54.913Z,100.00
2019-05-15T04:21:30.371Z,100.00
2019-05-15T04:24:03.079Z,100.00
2019-05-15T04:26:39.211Z,100.00
2019-05-15T04:29:12.535Z,100.00
2019-05-15T04:31:58.057Z,100.00
2019-05-15T04:34:19.445Z,100.00
2019-05-15T04:36:51.710Z,100.00
2019-05-15T04:39:23.769Z,100.00
2019-05-15T04:41:55.734Z,100.00
2019-05-15T04:44:28.915Z,100.00
2019-05-15T04:47:02.115Z,100.00
2019-05-15T04:49:39.429Z,100.00
2019-05-15T04:52:10.852Z,100.00
2019-05-15T04:54:44.290Z,100.00
2019-05-15T04:57:19.164Z,100.00
2019-05-15T04:59:50.028Z,100.00
2019-05-15T05:02:26.450Z,100.00
2019-05-15T05:04:58.606Z,100.00
2019-05-15T05:07:29.744Z,100.00
2019-05-15T05:10:09.557Z,100.00
2019-05-15T05:12:42.654Z,100.00
2019-05-15T05:15:14.786Z,100.00
2019-05-15T05:17:48.991Z,100.00
2019-05-15T05:20:21.044Z,100.00
2019-05-15T05:22:53.033Z,100.00
2019-05-15T05:25:27.831Z,100.00
2019-05-15T05:28:03.622Z,100.00
2019-05-15T05:30:38.432Z,100.00
2019-05-15T05:33:11.117Z,100.00
2019-05-15T05:35:43.087Z,100.00
2019-05-15T05:38:19.132Z,100.00
2019-05-15T05:40:51.100Z,100.00
2019-05-15T05:43:23.043Z,100.00
2019-05-15T05:45:58.118Z,99.62
2019-05-15T05:48:29.469Z,98.85
2019-05-15T05:51:01.461Z,98.22
2019-05-15T05:53:33.408Z,97.57
2019-05-15T05:56:05.594Z,96.63
2019-05-15T05:58:38.987Z,95.36
2019-05-15T06:01:11.329Z,93.62
2019-05-15T06:03:43.272Z,88.24
2019-05-15T06:06:18.604Z,79.15
2019-05-15T06:08:52.541Z,70.01
2019-05-15T06:11:24.543Z,63.93
2019-05-15T06:13:58.424Z,59.06
2019-05-15T06:16:30.165Z,56.02
2019-05-15T06:19:02.217Z,51.55
2019-05-15T06:21:34.195Z,47.72
2019-05-15T06:24:12.737Z,45.85
2019-05-15T06:26:40.075Z,44.13
2019-05-15T06:29:12.074Z,41.65
2019-05-15T06:31:43.993Z,39.62
2019-05-15T06:34:17.884Z,37.59
2019-05-15T06:36:49.744Z,37.04
2019-05-15T06:39:23.223Z,36.96
2019-05-15T06:41:55.593Z,35.65
2019-05-15T06:44:28.089Z,34.56
2019-05-15T06:47:00.059Z,34.02
2019-05-15T06:49:41.371Z,33.17
2019-05-15T06:52:19.015Z,31.93
2019-05-15T06:54:59.181Z,31.34
2019-05-15T06:57:30.773Z,30.61
2019-05-15T07:00:02.739Z,28.56
2019-05-15T07:02:34.845Z,27.38
2019-05-15T07:05:07.854Z,26.86
2019-05-15T07:07:41.813Z,26.09
2019-05-15T07:10:13.844Z,27.61
2019-05-15T07:12:48.483Z,26.63
2019-05-15T07:15:22.826Z,27.25
2019-05-15T07:17:54.768Z,25.93
2019-05-15T07:20:28.501Z,24.75
2019-05-15T07:23:00.560Z,23.88
2019-05-15T07:25:32.582Z,25.69
2019-05-15T07:28:04.635Z,24.61
2019-05-15T07:30:41.118Z,28.03
2019-05-15T07:33:11.872Z,29.12
2019-05-15T07:35:43.887Z,28.49
2019-05-15T07:38:18.747Z,26.45
2019-05-15T07:40:59.312Z,24.22
2019-05-15T07:43:28.088Z,25.35
2019-05-15T07:46:00.231Z,25.54
2019-05-15T07:48:33.319Z,24.60
2019-05-15T07:51:05.262Z,23.40
2019-05-15T07:53:38.474Z,22.34
2019-05-15T07:56:12.223Z,21.71
2019-05-15T07:58:44.568Z,21.10
2019-05-15T08:01:18.513Z,20.24
2019-05-15T08:03:58.744Z,19.39
2019-05-15T08:06:24.850Z,19.10
2019-05-15T08:08:59.046Z,19.35
2019-05-15T08:11:30.634Z,18.51
2019-05-15T08:14:03.755Z,18.93
2019-05-15T08:16:35.870Z,19.22
2019-05-15T08:19:08.819Z,18.50
2019-05-15T08:21:40.845Z,17.71
2019-05-15T08:24:13.458Z,18.08
2019-05-15T08:26:45.691Z,16.73
2019-05-15T08:29:21.625Z,15.90
2019-05-15T08:31:51.987Z,15.39
2019-05-15T08:34:24.054Z,15.72
2019-05-15T08:36:58.335Z,15.78
2019-05-15T08:39:29.758Z,15.83
2019-05-15T08:42:01.726Z,15.28
2019-05-15T08:44:35.604Z,14.59
2019-05-15T08:47:08.204Z,15.42
2019-05-15T08:49:44.293Z,15.60
2019-05-15T08:52:18.715Z,15.79
2019-05-15T08:54:50.273Z,14.92
2019-05-15T08:57:22.263Z,14.55
2019-05-15T08:59:54.239Z,14.01
2019-05-15T09:02:28.738Z,13.75
2019-05-15T09:05:02.420Z,13.63
2019-05-15T09:07:34.404Z,13.59
2019-05-15T09:10:08.964Z,13.20
2019-05-15T09:12:41.446Z,12.90
2019-05-15T09:15:14.248Z,12.50
2019-05-15T09:17:48.618Z,12.70
2019-05-15T09:20:21.594Z,13.56
2019-05-15T09:22:53.618Z,14.07
2019-05-15T09:25:28.632Z,12.75
2019-05-15T09:27:59.676Z,12.85
2019-05-15T09:30:32.985Z,12.73
2019-05-15T09:33:08.663Z,12.67
2019-05-15T09:35:41.197Z,12.80
2019-05-15T09:38:13.191Z,13.90
2019-05-15T09:40:46.561Z,15.19
2019-05-15T09:43:18.919Z,15.61
2019-05-15T09:45:50.880Z,15.49
2019-05-15T09:48:22.830Z,14.83
2019-05-15T09:50:54.792Z,13.65
2019-05-15T09:53:28.518Z,13.20
2019-05-15T09:56:00.848Z,13.14
2019-05-15T09:58:33.392Z,12.88
2019-05-15T10:01:08.158Z,11.54
2019-05-15T10:03:44.074Z,11.47
2019-05-15T10:06:12.976Z,10.23
2019-05-15T10:08:48.734Z,9.98
2019-05-15T10:11:19.990Z,9.90
2019-05-15T10:13:51.954Z,9.57
2019-05-15T10:16:24.845Z,10.19
2019-05-15T10:18:58.553Z,11.94
2019-05-15T10:21:32.570Z,14.40
2019-05-15T10:24:04.346Z,16.37
2019-05-15T10:26:36.252Z,17.22
2019-05-15T10:29:09.110Z,17.20
2019-05-15T10:31:41.319Z,15.85
2019-05-15T10:34:13.369Z,15.95
2019-05-15T10:36:45.673Z,16.20
2019-05-15T10:39:22.376Z,16.68
2019-05-15T10:41:54.364Z,16.48
2019-05-15T10:44:28.525Z,15.63
2019-05-15T10:47:00.139Z,16.49
2019-05-15T10:49:32.139Z,16.25
2019-05-15T10:52:04.079Z,16.05
2019-05-15T10:54:38.144Z,17.15
2019-05-15T10:57:09.848Z,16.39
2019-05-15T10:59:41.790Z,16.15
2019-05-15T11:02:13.844Z,16.35
2019-05-15T11:04:48.836Z,18.46
2019-05-15T11:07:20.805Z,21.01
2019-05-15T11:09:52.889Z,21.31
2019-05-15T11:12:24.844Z,20.29
2019-05-15T11:14:57.240Z,20.07
2019-05-15T11:17:31.594Z,19.16
2019-05-15T11:20:02.985Z,18.52
2019-05-15T11:22:35.010Z,18.76
2019-05-15T11:25:09.755Z,19.46
2019-05-15T11:27:48.440Z,20.56
2019-05-15T11:30:23.331Z,20.17
2019-05-15T11:33:00.880Z,19.06
2019-05-15T11:36:06.039Z,20.27
2019-05-15T11:38:38.164Z,20.01
2019-05-15T11:41:10.476Z,20.64
2019-05-15T11:43:42.611Z,20.38
2019-05-15T11:46:18.541Z,21.41
2019-05-15T11:48:50.799Z,24.35
2019-05-15T11:51:22.792Z,26.13
2019-05-15T11:53:54.865Z,26.27
2019-05-15T11:56:29.348Z,26.41
2019-05-15T11:59:00.649Z,27.38
2019-05-15T12:01:32.690Z,27.04
2019-05-15T12:04:09.237Z,28.34
2019-05-15T12:06:40.951Z,28.84
2019-05-15T12:09:13.174Z,29.85
2019-05-15T12:11:45.221Z,30.11
2019-05-15T12:14:19.327Z,30.69
2019-05-15T12:17:06.968Z,31.56
2019-05-15T12:19:29.176Z,31.57
2019-05-15T12:22:03.796Z,30.57
2019-05-15T12:24:36.999Z,30.68
2019-05-15T12:27:15.385Z,30.97
2019-05-15T12:29:44.846Z,31.65
2019-05-15T12:32:28.733Z,31.62
2019-05-15T12:34:52.563Z,31.91
2019-05-15T12:37:24.570Z,32.85
2019-05-15T13:00:29.811Z,34.39
2019-05-15T13:03:03.664Z,33.93
2019-05-15T13:05:35.714Z,33.97
2019-05-15T13:08:10.008Z,33.07
2019-05-15T13:10:42.359Z,35.42
2019-05-15T13:13:14.480Z,36.20
2019-05-15T13:15:48.275Z,35.72
2019-05-15T13:18:20.370Z,34.69
2019-05-15T13:20:52.355Z,35.44
2019-05-15T13:23:24.351Z,36.38
2019-05-15T13:25:59.110Z,36.36
2019-05-15T13:28:31.485Z,35.99
2019-05-15T13:31:03.562Z,36.19
2019-05-15T13:33:35.500Z,35.62
2019-05-15T13:36:08.974Z,36.23
2019-05-15T13:38:41.194Z,35.73
2019-05-15T13:41:13.405Z,37.48
2019-05-15T13:43:45.413Z,36.72
2019-05-15T13:46:20.711Z,36.98
2019-05-15T13:48:51.249Z,37.55
2019-05-15T13:51:23.319Z,37.37
2019-05-15T13:53:55.540Z,37.94
2019-05-15T13:56:28.960Z,38.29
2019-05-15T13:59:01.542Z,38.24
2019-05-15T14:01:33.846Z,38.77
2019-05-15T14:04:08.543Z,37.70
2019-05-15T14:06:41.678Z,38.15
2019-05-15T14:09:13.638Z,37.22
2019-05-15T14:11:48.906Z,37.04
2019-05-15T14:14:19.422Z,36.68
2019-05-15T14:16:51.411Z,37.64
2019-05-15T14:19:23.563Z,37.19
2019-05-15T14:22:01.290Z,38.32
2019-05-15T14:24:33.377Z,38.26
2019-05-15T14:27:05.630Z,38.54
2019-05-15T14:29:37.595Z,38.05
2019-05-15T14:32:09.924Z,37.28
2019-05-15T14:34:41.924Z,36.44
2019-05-15T14:37:14.130Z,36.63
2019-05-15T14:39:52.035Z,36.87
2019-05-15T14:42:20.536Z,36.79
2019-05-15T14:44:53.553Z,35.88
2019-05-15T14:47:26.409Z,35.47
2019-05-15T14:49:59.625Z,35.62
2019-05-15T14:52:31.617Z,35.76
2019-05-15T14:55:06.566Z,35.36
2019-05-15T14:57:39.572Z,34.30
2019-05-15T15:00:12.241Z,33.87
2019-05-15T15:02:44.334Z,32.95
2019-05-15T15:05:19.995Z,33.15
2019-05-15T15:07:50.360Z,33.20
2019-05-15T15:10:22.440Z,32.93
2019-05-15T15:12:55.020Z,33.67
2019-05-15T15:15:28.742Z,33.09
2019-05-15T15:18:01.083Z,35.32
2019-05-15T15:20:33.196Z,33.95
2019-05-15T15:23:08.253Z,35.43
2019-05-15T15:25:39.977Z,34.97
2019-05-15T15:28:12.430Z,35.77
2019-05-15T15:30:44.865Z,34.38
2019-05-15T15:33:16.912Z,36.62
2019-05-15T15:35:50.780Z,36.27
2019-05-15T15:38:37.563Z,34.95
2019-05-15T15:41:00.330Z,36.17
2019-05-15T15:43:32.331Z,37.03
2019-05-15T15:46:08.418Z,37.18
2019-05-15T15:48:40.424Z,36.57
2019-05-15T15:51:12.464Z,37.05
2019-05-15T15:53:44.924Z,36.43
2019-05-15T15:56:18.435Z,36.26
2019-05-15T15:58:50.687Z,36.07
2019-05-15T16:01:25.654Z,38.46
2019-05-15T16:03:56.992Z,38.76
2019-05-15T16:06:29.713Z,37.79
2019-05-15T16:09:01.823Z,37.06
2019-05-15T16:11:35.748Z,38.31
2019-05-15T16:14:09.153Z,38.91
2019-05-15T16:16:41.552Z,39.82
2019-05-15T16:19:13.660Z,40.23
2019-05-15T16:21:45.763Z,40.37
2019-05-15T16:24:21.594Z,40.69
2019-05-15T16:26:51.673Z,41.77
2019-05-15T16:29:23.779Z,42.24
2019-05-15T16:31:58.090Z,42.57
2019-05-15T16:34:29.551Z,42.65
2019-05-15T16:37:02.667Z,43.43
2019-05-15T16:39:38.165Z,43.80
2019-05-15T16:42:11.497Z,43.73
2019-05-15T16:44:43.621Z,44.00
2019-05-15T16:47:15.694Z,44.66
2019-05-15T16:49:48.541Z,45.25
2019-05-15T16:52:20.857Z,46.14
2019-05-15T16:54:52.910Z,46.87
2019-05-15T16:57:24.931Z,47.36
2019-05-15T16:59:58.601Z,48.30
2019-05-15T17:02:33.461Z,48.81
2019-05-15T17:05:06.764Z,48.88
2019-05-15T17:07:40.081Z,48.53
2019-05-15T17:10:12.537Z,47.91
2019-05-15T17:12:44.627Z,48.20
2019-05-15T17:15:16.898Z,48.52
2019-05-15T17:17:49.453Z,48.43
2019-05-15T17:20:21.678Z,48.26
2019-05-15T17:22:57.743Z,47.58
2019-05-15T17:25:29.322Z,48.11
2019-05-15T17:28:01.360Z,48.59
2019-05-15T17:30:35.391Z,48.76
2019-05-15T17:33:07.516Z,48.61
2019-05-15T17:35:39.532Z,48.93
2019-05-15T17:38:11.725Z,49.08
2019-05-15T17:40:45.735Z,49.48
2019-05-15T17:43:18.675Z,49.99
2019-05-15T17:45:52.370Z,51.30
2019-05-15T17:48:24.345Z,51.85
2019-05-15T17:50:58.439Z,52.16
2019-05-15T17:53:31.165Z,53.06
2019-05-15T17:56:03.326Z,53.21
2019-05-15T17:58:35.400Z,54.04
2019-05-15T18:01:08.745Z,54.21
2019-05-15T18:03:42.081Z,54.27
2019-05-15T18:06:14.192Z,54.24
2019-05-15T18:08:48.398Z,55.20
2019-05-15T18:11:22.820Z,55.16
2019-05-15T18:13:58.368Z,55.25
2019-05-15T18:16:32.080Z,55.97
2019-05-15T18:19:08.319Z,57.01
2019-05-15T18:21:40.710Z,57.64
2019-05-15T18:24:12.739Z,58.48
2019-05-15T18:26:45.901Z,58.52
2019-05-15T18:29:21.648Z,59.26
2019-05-15T18:31:55.817Z,59.84
2019-05-15T18:34:30.534Z,60.34
2019-05-15T18:37:02.937Z,60.92
2019-05-15T18:39:35.218Z,61.09
2019-05-15T18:42:07.356Z,61.70
2019-05-15T18:44:41.129Z,62.15
2019-05-15T18:47:13.283Z,63.30
2019-05-15T18:49:59.232Z,64.25
2019-05-15T18:52:38.530Z,65.06
2019-05-15T18:55:11.243Z,64.47
2019-05-15T18:57:43.229Z,65.34
2019-05-15T19:00:18.423Z,66.15
2019-05-15T19:02:50.582Z,66.69
2019-05-15T19:05:22.579Z,67.85
2019-05-15T19:07:57.985Z,68.52
2019-05-15T19:10:30.182Z,69.23
2019-05-15T19:13:02.164Z,69.86
2019-05-15T19:15:34.251Z,70.33
2019-05-15T19:18:08.062Z,71.14
2019-05-15T19:20:39.914Z,71.14
2019-05-15T19:23:11.944Z,71.97
2019-05-15T19:25:44.021Z,72.73
2019-05-15T19:28:18.733Z,73.23
2019-05-15T19:30:50.196Z,73.73
2019-05-15T19:33:33.306Z,74.29
2019-05-15T19:35:57.624Z,75.02
2019-05-15T19:38:29.900Z,75.79
2019-05-15T19:41:03.203Z,76.31
2019-05-15T19:43:37.943Z,76.56
2019-05-15T19:46:10.276Z,77.18
2019-05-15T19:48:42.327Z,77.86
2019-05-15T19:51:14.411Z,78.66
2019-05-15T19:53:47.886Z,79.23
2019-05-15T19:56:20.053Z,80.13
2019-05-15T19:58:52.271Z,81.11
2019-05-15T20:01:24.297Z,81.93
2019-05-15T20:03:58.207Z,82.63
2019-05-15T20:06:31.324Z,82.96
2019-05-15T20:09:07.906Z,83.48
2019-05-15T20:11:47.774Z,84.09
2019-05-15T20:14:23.362Z,84.65
2019-05-15T20:16:55.905Z,85.19
2019-05-15T20:19:28.854Z,85.79
2019-05-15T20:22:02.246Z,86.12
2019-05-15T20:24:34.329Z,86.80
2019-05-15T20:27:08.597Z,87.26
2019-05-15T20:29:40.796Z,87.88
2019-05-15T20:32:12.959Z,88.60
2019-05-15T20:34:48.327Z,89.02
2019-05-15T20:37:20.756Z,89.53
2019-05-15T20:39:53.134Z,90.03
2019-05-15T20:42:25.548Z,90.43
2019-05-15T20:44:58.692Z,90.57
2019-05-15T20:47:30.775Z,90.95
2019-05-15T20:50:08.508Z,91.47
2019-05-15T20:52:40.518Z,91.62
2019-05-15T20:55:12.777Z,92.09
2019-05-15T20:57:47.406Z,92.28
2019-05-15T21:00:19.489Z,92.83
2019-05-15T21:02:52.047Z,93.25
2019-05-15T21:05:27.628Z,93.16
2019-05-15T21:07:59.510Z,93.19
2019-05-15T21:10:31.749Z,93.67
2019-05-15T21:13:03.946Z,94.08
2019-05-15T21:15:36.285Z,94.37
2019-05-15T21:18:14.219Z,94.45
2019-05-15T21:20:42.103Z,94.62
2019-05-15T21:23:14.189Z,95.04
2019-05-15T21:25:48.469Z,95.05
2019-05-15T21:28:20.159Z,95.32
2019-05-15T21:30:52.137Z,95.68
2019-05-15T21:33:24.510Z,95.67
2019-05-15T21:35:58.348Z,95.84
2019-05-15T21:38:30.925Z,95.82
2019-05-15T21:41:03.030Z,96.09
2019-05-15T21:43:35.259Z,96.09
2019-05-15T21:46:08.487Z,95.72
2019-05-15T21:48:40.751Z,95.63
2019-05-15T21:51:15.453Z,95.71
2019-05-15T21:54:09.962Z,96.15
2019-05-15T21:56:41.661Z,96.75
2019-05-15T21:59:13.805Z,96.87
2019-05-15T22:01:48.324Z,97.00
2019-05-15T22:04:23.964Z,97.30
2019-05-15T22:06:58.438Z,97.57
2019-05-15T22:09:31.870Z,97.72
2019-05-15T22:12:04.781Z,97.64
2019-05-15T22:14:37.916Z,97.39
2019-05-15T22:17:20.145Z,96.93
2019-05-15T22:19:55.245Z,96.83
2019-05-15T22:22:30.311Z,96.49
2019-05-15T22:25:11.287Z,96.02
2019-05-15T22:27:54.220Z,95.04
2019-05-15T22:30:35.728Z,94.82
2019-05-15T22:33:08.715Z,94.44
2019-05-15T22:35:41.134Z,93.20
2019-05-15T22:38:21.028Z,92.63
2019-05-15T22:40:54.341Z,92.23
2019-05-15T22:43:28.796Z,91.88
2019-05-15T22:46:05.323Z,91.99
2019-05-15T22:48:38.981Z,91.45
2019-05-15T22:51:11.490Z,90.85
2019-05-15T22:53:43.510Z,91.01
2019-05-15T22:56:15.534Z,90.80
2019-05-15T22:58:48.035Z,90.17
2019-05-15T23:01:22.222Z,89.79
2019-05-15T23:03:54.321Z,89.35
2019-05-15T23:06:28.130Z,89.19
2019-05-15T23:09:00.087Z,89.72
2019-05-15T23:11:32.074Z,89.62
2019-05-15T23:14:04.276Z,89.45
2019-05-15T23:19:33.496Z,88.87
2019-05-15T23:22:08.176Z,88.87
2019-05-15T23:24:39.593Z,88.07
2019-05-15T23:27:11.757Z,87.82
2019-05-15T23:29:43.957Z,87.26
2019-05-15T23:32:18.228Z,86.86
2019-05-15T23:34:51.161Z,86.57
2019-05-15T23:37:23.896Z,86.35
2019-05-15T23:39:58.179Z,86.19
2019-05-15T23:42:32.283Z,86.08
2019-05-15T23:45:18.411Z,86.74
2019-05-15T23:47:53.804Z,86.84
2019-05-15T23:50:25.765Z,86.83
2019-05-15T23:52:58.364Z,86.97
2019-05-15T23:55:30.555Z,86.90
2019-05-15T23:58:02.629Z,86.96
